sensor_id;sensor_type;location;lat;lon;timestamp;temperature;humidity
46043;DHT22;32533;-33.854;18.542;2022-08-03T00:01:44;16.10;92.90
46043;DHT22;32533;-33.854;18.542;2022-08-03T00:04:11;16.10;92.90
46043;DHT22;32533;-33.854;18.542;2022-08-03T00:06:37;16.10;92.90
46043;DHT22;32533;-33.854;18.542;2022-08-03T00:09:05;16.00;92.90
46043;DHT22;32533;-33.854;18.542;2022-08-03T00:11:32;16.00;92.80
46043;DHT22;32533;-33.854;18.542;2022-08-03T00:13:59;16.00;92.80
46043;DHT22;32533;-33.854;18.542;2022-08-03T00:16:25;16.00;92.80
46043;DHT22;32533;-33.854;18.542;2022-08-03T00:18:52;16.00;92.80
46043;DHT22;32533;-33.854;18.542;2022-08-03T00:21:18;16.00;92.80
46043;DHT22;32533;-33.854;18.542;2022-08-03T00:23:45;16.00;92.90
46043;DHT22;32533;-33.854;18.542;2022-08-03T00:26:11;16.00;92.80
46043;DHT22;32533;-33.854;18.542;2022-08-03T00:28:38;16.00;92.80
46043;DHT22;32533;-33.854;18.542;2022-08-03T00:31:05;15.90;92.70
46043;DHT22;32533;-33.854;18.542;2022-08-03T00:33:32;15.90;92.80
46043;DHT22;32533;-33.854;18.542;2022-08-03T00:35:59;15.90;92.70
46043;DHT22;32533;-33.854;18.542;2022-08-03T00:38:25;15.90;92.70
46043;DHT22;32533;-33.854;18.542;2022-08-03T00:40:51;15.90;92.70
46043;DHT22;32533;-33.854;18.542;2022-08-03T00:43:18;15.90;92.70
46043;DHT22;32533;-33.854;18.542;2022-08-03T00:45:45;15.90;92.70
46043;DHT22;32533;-33.854;18.542;2022-08-03T00:48:12;15.90;92.80
46043;DHT22;32533;-33.854;18.542;2022-08-03T00:50:40;15.90;92.80
46043;DHT22;32533;-33.854;18.542;2022-08-03T00:53:10;15.90;92.80
46043;DHT22;32533;-33.854;18.542;2022-08-03T00:55:40;15.90;92.80
46043;DHT22;32533;-33.854;18.542;2022-08-03T00:58:07;15.80;92.70
46043;DHT22;32533;-33.854;18.542;2022-08-03T01:00:37;15.80;92.70
46043;DHT22;32533;-33.854;18.542;2022-08-03T01:03:08;15.80;92.70
46043;DHT22;32533;-33.854;18.542;2022-08-03T01:05:52;15.80;92.70
46043;DHT22;32533;-33.854;18.542;2022-08-03T01:16:14;15.80;92.70
46043;DHT22;32533;-33.854;18.542;2022-08-03T01:30:10;15.70;92.60
46043;DHT22;32533;-33.854;18.542;2022-08-03T01:32:43;15.70;92.60
46043;DHT22;32533;-33.854;18.542;2022-08-03T01:35:27;15.70;92.60
46043;DHT22;32533;-33.854;18.542;2022-08-03T01:38:03;15.80;92.60
46043;DHT22;32533;-33.854;18.542;2022-08-03T01:40:31;15.70;92.50
46043;DHT22;32533;-33.854;18.542;2022-08-03T01:43:01;15.70;92.60
46043;DHT22;32533;-33.854;18.542;2022-08-03T01:45:29;15.70;92.50
46043;DHT22;32533;-33.854;18.542;2022-08-03T01:47:57;15.70;92.50
46043;DHT22;32533;-33.854;18.542;2022-08-03T01:50:27;15.70;92.50
46043;DHT22;32533;-33.854;18.542;2022-08-03T01:52:55;15.70;92.50
46043;DHT22;32533;-33.854;18.542;2022-08-03T01:55:24;15.70;92.50
46043;DHT22;32533;-33.854;18.542;2022-08-03T01:57:55;15.70;92.50
46043;DHT22;32533;-33.854;18.542;2022-08-03T02:00:25;15.70;92.50
46043;DHT22;32533;-33.854;18.542;2022-08-03T02:02:53;15.70;92.50
46043;DHT22;32533;-33.854;18.542;2022-08-03T02:05:21;15.70;92.50
46043;DHT22;32533;-33.854;18.542;2022-08-03T02:07:49;15.70;92.40
46043;DHT22;32533;-33.854;18.542;2022-08-03T02:10:19;15.70;92.40
46043;DHT22;32533;-33.854;18.542;2022-08-03T02:12:47;15.60;92.30
46043;DHT22;32533;-33.854;18.542;2022-08-03T02:15:16;15.60;92.30
46043;DHT22;32533;-33.854;18.542;2022-08-03T02:17:46;15.60;92.30
46043;DHT22;32533;-33.854;18.542;2022-08-03T02:20:13;15.60;92.20
46043;DHT22;32533;-33.854;18.542;2022-08-03T02:22:41;15.60;92.20
46043;DHT22;32533;-33.854;18.542;2022-08-03T02:25:11;15.60;92.20
46043;DHT22;32533;-33.854;18.542;2022-08-03T02:28:15;15.50;92.10
46043;DHT22;32533;-33.854;18.542;2022-08-03T02:30:37;15.60;92.50
46043;DHT22;32533;-33.854;18.542;2022-08-03T02:33:06;15.50;92.10
46043;DHT22;32533;-33.854;18.542;2022-08-03T02:35:36;15.50;92.00
46043;DHT22;32533;-33.854;18.542;2022-08-03T02:38:07;15.50;92.00
46043;DHT22;32533;-33.854;18.542;2022-08-03T02:40:35;15.50;91.90
46043;DHT22;32533;-33.854;18.542;2022-08-03T02:43:07;15.50;91.80
46043;DHT22;32533;-33.854;18.542;2022-08-03T02:45:43;15.50;91.70
46043;DHT22;32533;-33.854;18.542;2022-08-03T02:48:11;15.50;91.70
46043;DHT22;32533;-33.854;18.542;2022-08-03T02:50:41;15.40;91.60
46043;DHT22;32533;-33.854;18.542;2022-08-03T02:53:11;15.40;91.50
46043;DHT22;32533;-33.854;18.542;2022-08-03T02:55:39;15.30;91.40
46043;DHT22;32533;-33.854;18.542;2022-08-03T02:58:07;15.30;91.30
46043;DHT22;32533;-33.854;18.542;2022-08-03T03:00:35;15.30;91.20
46043;DHT22;32533;-33.854;18.542;2022-08-03T03:03:03;15.30;91.10
46043;DHT22;32533;-33.854;18.542;2022-08-03T03:05:31;15.30;91.00
46043;DHT22;32533;-33.854;18.542;2022-08-03T03:07:59;15.30;90.80
46043;DHT22;32533;-33.854;18.542;2022-08-03T03:10:27;15.20;90.70
46043;DHT22;32533;-33.854;18.542;2022-08-03T03:12:57;15.20;90.60
46043;DHT22;32533;-33.854;18.542;2022-08-03T03:15:26;15.20;90.40
46043;DHT22;32533;-33.854;18.542;2022-08-03T03:17:53;15.20;90.40
46043;DHT22;32533;-33.854;18.542;2022-08-03T03:20:21;15.20;90.30
46043;DHT22;32533;-33.854;18.542;2022-08-03T03:22:49;15.20;90.40
46043;DHT22;32533;-33.854;18.542;2022-08-03T03:25:17;15.20;90.50
46043;DHT22;32533;-33.854;18.542;2022-08-03T03:27:44;15.20;90.60
46043;DHT22;32533;-33.854;18.542;2022-08-03T03:30:12;15.20;90.70
46043;DHT22;32533;-33.854;18.542;2022-08-03T03:32:38;15.20;90.80
46043;DHT22;32533;-33.854;18.542;2022-08-03T03:35:06;15.20;90.60
46043;DHT22;32533;-33.854;18.542;2022-08-03T03:37:32;15.10;90.40
46043;DHT22;32533;-33.854;18.542;2022-08-03T03:39:59;15.10;90.40
46043;DHT22;32533;-33.854;18.542;2022-08-03T03:42:26;15.10;90.50
46043;DHT22;32533;-33.854;18.542;2022-08-03T03:44:52;15.10;90.20
46043;DHT22;32533;-33.854;18.542;2022-08-03T03:47:38;15.10;90.20
46043;DHT22;32533;-33.854;18.542;2022-08-03T03:50:25;15.10;90.20
46043;DHT22;32533;-33.854;18.542;2022-08-03T03:52:52;15.00;89.90
46043;DHT22;32533;-33.854;18.542;2022-08-03T03:55:19;15.00;89.50
46043;DHT22;32533;-33.854;18.542;2022-08-03T03:57:45;15.00;89.20
46043;DHT22;32533;-33.854;18.542;2022-08-03T04:00:13;15.00;88.80
46043;DHT22;32533;-33.854;18.542;2022-08-03T04:02:40;15.00;88.30
46043;DHT22;32533;-33.854;18.542;2022-08-03T04:05:07;14.90;87.80
46043;DHT22;32533;-33.854;18.542;2022-08-03T04:07:58;14.90;87.60
46043;DHT22;32533;-33.854;18.542;2022-08-03T04:10:53;14.90;87.40
46043;DHT22;32533;-33.854;18.542;2022-08-03T04:13:50;14.80;87.10
46043;DHT22;32533;-33.854;18.542;2022-08-03T04:16:21;14.80;87.20
46043;DHT22;32533;-33.854;18.542;2022-08-03T04:19:31;14.80;87.50
46043;DHT22;32533;-33.854;18.542;2022-08-03T04:21:52;14.80;87.50
46043;DHT22;32533;-33.854;18.542;2022-08-03T04:24:20;14.80;87.50
46043;DHT22;32533;-33.854;18.542;2022-08-03T04:26:48;14.70;87.40
46043;DHT22;32533;-33.854;18.542;2022-08-03T04:29:17;14.70;87.20
46043;DHT22;32533;-33.854;18.542;2022-08-03T04:31:45;14.70;86.90
46043;DHT22;32533;-33.854;18.542;2022-08-03T04:34:13;14.70;86.70
46043;DHT22;32533;-33.854;18.542;2022-08-03T04:36:46;14.60;86.40
46043;DHT22;32533;-33.854;18.542;2022-08-03T04:39:18;14.70;86.50
46043;DHT22;32533;-33.854;18.542;2022-08-03T04:41:48;14.60;86.60
46043;DHT22;32533;-33.854;18.542;2022-08-03T04:44:18;14.60;86.90
46043;DHT22;32533;-33.854;18.542;2022-08-03T04:46:47;14.60;86.90
46043;DHT22;32533;-33.854;18.542;2022-08-03T04:49:14;14.60;86.90
46043;DHT22;32533;-33.854;18.542;2022-08-03T04:51:41;14.60;86.90
46043;DHT22;32533;-33.854;18.542;2022-08-03T04:54:12;14.60;87.30
46043;DHT22;32533;-33.854;18.542;2022-08-03T04:56:42;14.60;87.60
46043;DHT22;32533;-33.854;18.542;2022-08-03T04:59:09;14.60;87.60
46043;DHT22;32533;-33.854;18.542;2022-08-03T05:01:36;14.60;88.10
46043;DHT22;32533;-33.854;18.542;2022-08-03T05:04:03;14.60;88.40
46043;DHT22;32533;-33.854;18.542;2022-08-03T05:06:29;14.60;88.60
46043;DHT22;32533;-33.854;18.542;2022-08-03T05:08:56;14.60;88.70
46043;DHT22;32533;-33.854;18.542;2022-08-03T05:11:22;14.60;88.70
46043;DHT22;32533;-33.854;18.542;2022-08-03T05:13:49;14.60;88.70
46043;DHT22;32533;-33.854;18.542;2022-08-03T05:16:15;14.60;88.80
46043;DHT22;32533;-33.854;18.542;2022-08-03T05:18:42;14.60;88.90
46043;DHT22;32533;-33.854;18.542;2022-08-03T05:21:09;14.60;88.90
46043;DHT22;32533;-33.854;18.542;2022-08-03T05:23:45;14.60;88.90
46043;DHT22;32533;-33.854;18.542;2022-08-03T05:26:11;14.70;89.00
46043;DHT22;32533;-33.854;18.542;2022-08-03T05:28:38;14.70;88.90
46043;DHT22;32533;-33.854;18.542;2022-08-03T05:31:04;14.70;89.00
46043;DHT22;32533;-33.854;18.542;2022-08-03T05:33:31;14.70;89.40
46043;DHT22;32533;-33.854;18.542;2022-08-03T05:35:58;14.70;89.70
46043;DHT22;32533;-33.854;18.542;2022-08-03T05:38:25;14.70;89.60
46043;DHT22;32533;-33.854;18.542;2022-08-03T05:40:51;14.70;89.60
46043;DHT22;32533;-33.854;18.542;2022-08-03T05:43:18;14.70;89.10
46043;DHT22;32533;-33.854;18.542;2022-08-03T05:45:44;14.70;89.00
46043;DHT22;32533;-33.854;18.542;2022-08-03T05:48:10;14.60;88.90
46043;DHT22;32533;-33.854;18.542;2022-08-03T05:50:37;14.60;89.00
46043;DHT22;32533;-33.854;18.542;2022-08-03T05:53:03;14.60;88.90
46043;DHT22;32533;-33.854;18.542;2022-08-03T05:55:30;14.60;88.70
46043;DHT22;32533;-33.854;18.542;2022-08-03T05:57:56;14.60;88.70
46043;DHT22;32533;-33.854;18.542;2022-08-03T06:00:23;14.60;88.60
46043;DHT22;32533;-33.854;18.542;2022-08-03T06:02:50;14.50;88.80
46043;DHT22;32533;-33.854;18.542;2022-08-03T06:05:16;14.50;88.90
46043;DHT22;32533;-33.854;18.542;2022-08-03T06:07:42;14.50;88.90
46043;DHT22;32533;-33.854;18.542;2022-08-03T06:10:09;14.50;89.00
46043;DHT22;32533;-33.854;18.542;2022-08-03T06:12:36;14.50;89.60
46043;DHT22;32533;-33.854;18.542;2022-08-03T06:15:03;14.50;89.00
46043;DHT22;32533;-33.854;18.542;2022-08-03T06:17:30;14.50;89.20
46043;DHT22;32533;-33.854;18.542;2022-08-03T06:19:57;14.50;89.20
46043;DHT22;32533;-33.854;18.542;2022-08-03T06:22:23;14.50;89.40
46043;DHT22;32533;-33.854;18.542;2022-08-03T06:24:50;14.50;89.40
46043;DHT22;32533;-33.854;18.542;2022-08-03T06:27:16;14.50;89.60
46043;DHT22;32533;-33.854;18.542;2022-08-03T06:29:43;14.50;89.80
46043;DHT22;32533;-33.854;18.542;2022-08-03T06:32:10;14.50;90.00
46043;DHT22;32533;-33.854;18.542;2022-08-03T06:34:36;14.50;90.10
46043;DHT22;32533;-33.854;18.542;2022-08-03T06:37:03;14.50;90.10
46043;DHT22;32533;-33.854;18.542;2022-08-03T06:39:30;14.50;90.20
46043;DHT22;32533;-33.854;18.542;2022-08-03T06:41:56;14.50;90.30
46043;DHT22;32533;-33.854;18.542;2022-08-03T06:44:23;14.50;90.30
46043;DHT22;32533;-33.854;18.542;2022-08-03T06:46:49;14.50;90.40
46043;DHT22;32533;-33.854;18.542;2022-08-03T06:49:16;14.50;90.60
46043;DHT22;32533;-33.854;18.542;2022-08-03T06:51:43;14.50;90.60
46043;DHT22;32533;-33.854;18.542;2022-08-03T06:54:10;14.60;90.70
46043;DHT22;32533;-33.854;18.542;2022-08-03T06:56:37;14.60;90.70
46043;DHT22;32533;-33.854;18.542;2022-08-03T06:59:04;14.60;90.70
46043;DHT22;32533;-33.854;18.542;2022-08-03T07:01:30;14.60;90.80
46043;DHT22;32533;-33.854;18.542;2022-08-03T07:03:57;14.60;90.90
46043;DHT22;32533;-33.854;18.542;2022-08-03T07:06:23;14.60;91.00
46043;DHT22;32533;-33.854;18.542;2022-08-03T07:08:50;14.60;91.20
46043;DHT22;32533;-33.854;18.542;2022-08-03T07:11:16;14.70;91.30
46043;DHT22;32533;-33.854;18.542;2022-08-03T07:13:43;14.70;91.30
46043;DHT22;32533;-33.854;18.542;2022-08-03T07:16:09;14.70;91.40
46043;DHT22;32533;-33.854;18.542;2022-08-03T07:18:39;14.70;91.40
46043;DHT22;32533;-33.854;18.542;2022-08-03T07:21:06;14.70;91.50
46043;DHT22;32533;-33.854;18.542;2022-08-03T07:23:34;14.70;91.70
46043;DHT22;32533;-33.854;18.542;2022-08-03T07:26:00;14.80;91.80
46043;DHT22;32533;-33.854;18.542;2022-08-03T07:28:27;14.80;91.80
46043;DHT22;32533;-33.854;18.542;2022-08-03T07:30:53;14.90;91.70
46043;DHT22;32533;-33.854;18.542;2022-08-03T07:33:20;14.90;91.70
46043;DHT22;32533;-33.854;18.542;2022-08-03T07:35:46;14.90;91.70
46043;DHT22;32533;-33.854;18.542;2022-08-03T07:38:13;14.90;91.60
46043;DHT22;32533;-33.854;18.542;2022-08-03T07:40:39;14.90;91.60
46043;DHT22;32533;-33.854;18.542;2022-08-03T07:43:06;14.90;91.60
46043;DHT22;32533;-33.854;18.542;2022-08-03T07:45:32;14.90;91.50
46043;DHT22;32533;-33.854;18.542;2022-08-03T07:47:59;14.90;91.50
46043;DHT22;32533;-33.854;18.542;2022-08-03T07:50:26;14.90;91.60
46043;DHT22;32533;-33.854;18.542;2022-08-03T07:52:52;15.00;91.60
46043;DHT22;32533;-33.854;18.542;2022-08-03T07:55:25;15.00;91.60
46043;DHT22;32533;-33.854;18.542;2022-08-03T07:58:21;15.00;91.60
46043;DHT22;32533;-33.854;18.542;2022-08-03T08:00:49;15.10;91.70
46043;DHT22;32533;-33.854;18.542;2022-08-03T08:03:18;15.10;91.70
46043;DHT22;32533;-33.854;18.542;2022-08-03T08:05:44;15.10;92.00
46043;DHT22;32533;-33.854;18.542;2022-08-03T08:08:11;15.20;91.70
46043;DHT22;32533;-33.854;18.542;2022-08-03T08:10:40;15.30;91.80
46043;DHT22;32533;-33.854;18.542;2022-08-03T08:13:06;15.30;91.90
46043;DHT22;32533;-33.854;18.542;2022-08-03T08:15:33;15.40;91.90
46043;DHT22;32533;-33.854;18.542;2022-08-03T08:18:00;15.40;91.90
46043;DHT22;32533;-33.854;18.542;2022-08-03T08:20:32;15.40;91.90
46043;DHT22;32533;-33.854;18.542;2022-08-03T08:23:01;15.50;91.80
46043;DHT22;32533;-33.854;18.542;2022-08-03T08:25:29;15.50;91.80
46043;DHT22;32533;-33.854;18.542;2022-08-03T08:27:56;15.50;91.80
46043;DHT22;32533;-33.854;18.542;2022-08-03T08:30:23;15.50;91.80
46043;DHT22;32533;-33.854;18.542;2022-08-03T08:32:50;15.60;91.80
46043;DHT22;32533;-33.854;18.542;2022-08-03T08:35:17;15.60;91.80
46043;DHT22;32533;-33.854;18.542;2022-08-03T08:37:44;15.60;91.90
46043;DHT22;32533;-33.854;18.542;2022-08-03T08:40:11;15.60;91.90
46043;DHT22;32533;-33.854;18.542;2022-08-03T08:42:42;15.60;92.00
46043;DHT22;32533;-33.854;18.542;2022-08-03T08:45:09;15.70;92.10
46043;DHT22;32533;-33.854;18.542;2022-08-03T08:47:43;15.60;92.20
46043;DHT22;32533;-33.854;18.542;2022-08-03T08:50:10;15.70;92.30
46043;DHT22;32533;-33.854;18.542;2022-08-03T08:52:40;15.70;92.60
46043;DHT22;32533;-33.854;18.542;2022-08-03T08:55:08;15.70;92.40
46043;DHT22;32533;-33.854;18.542;2022-08-03T08:57:38;15.80;92.40
46043;DHT22;32533;-33.854;18.542;2022-08-03T09:00:09;15.80;92.50
46043;DHT22;32533;-33.854;18.542;2022-08-03T09:02:39;15.90;92.90
46043;DHT22;32533;-33.854;18.542;2022-08-03T09:05:13;15.90;92.60
46043;DHT22;32533;-33.854;18.542;2022-08-03T09:07:41;15.90;92.60
46043;DHT22;32533;-33.854;18.542;2022-08-03T09:10:09;15.90;92.50
46043;DHT22;32533;-33.854;18.542;2022-08-03T09:12:43;16.00;92.50
46043;DHT22;32533;-33.854;18.542;2022-08-03T09:15:24;16.10;92.50
46043;DHT22;32533;-33.854;18.542;2022-08-03T09:17:53;16.10;92.40
46043;DHT22;32533;-33.854;18.542;2022-08-03T09:20:21;16.10;92.30
46043;DHT22;32533;-33.854;18.542;2022-08-03T09:22:58;16.20;92.30
46043;DHT22;32533;-33.854;18.542;2022-08-03T09:25:30;16.20;92.30
46043;DHT22;32533;-33.854;18.542;2022-08-03T09:28:10;16.30;92.10
46043;DHT22;32533;-33.854;18.542;2022-08-03T09:30:40;16.30;91.90
46043;DHT22;32533;-33.854;18.542;2022-08-03T09:33:12;16.30;91.70
46043;DHT22;32533;-33.854;18.542;2022-08-03T09:35:42;16.30;91.50
46043;DHT22;32533;-33.854;18.542;2022-08-03T09:38:18;16.30;91.60
46043;DHT22;32533;-33.854;18.542;2022-08-03T09:40:48;16.30;91.20
46043;DHT22;32533;-33.854;18.542;2022-08-03T09:43:15;16.40;91.20
46043;DHT22;32533;-33.854;18.542;2022-08-03T09:45:43;16.40;91.20
46043;DHT22;32533;-33.854;18.542;2022-08-03T09:48:26;16.40;91.20
46043;DHT22;32533;-33.854;18.542;2022-08-03T09:50:59;16.40;91.10
46043;DHT22;32533;-33.854;18.542;2022-08-03T09:53:26;16.50;91.00
46043;DHT22;32533;-33.854;18.542;2022-08-03T09:55:58;16.60;91.00
46043;DHT22;32533;-33.854;18.542;2022-08-03T09:58:26;16.60;90.90
46043;DHT22;32533;-33.854;18.542;2022-08-03T10:01:04;16.70;90.80
46043;DHT22;32533;-33.854;18.542;2022-08-03T10:03:33;16.70;90.70
46043;DHT22;32533;-33.854;18.542;2022-08-03T10:06:19;16.80;90.60
46043;DHT22;32533;-33.854;18.542;2022-08-03T10:09:04;16.80;90.40
46043;DHT22;32533;-33.854;18.542;2022-08-03T10:11:32;16.90;90.20
46043;DHT22;32533;-33.854;18.542;2022-08-03T10:14:04;16.90;90.10
46043;DHT22;32533;-33.854;18.542;2022-08-03T10:16:38;16.90;90.00
46043;DHT22;32533;-33.854;18.542;2022-08-03T10:19:06;17.00;90.00
46043;DHT22;32533;-33.854;18.542;2022-08-03T10:21:37;17.00;89.80
46043;DHT22;32533;-33.854;18.542;2022-08-03T10:24:06;17.00;89.60
46043;DHT22;32533;-33.854;18.542;2022-08-03T10:26:38;17.00;88.90
46043;DHT22;32533;-33.854;18.542;2022-08-03T10:29:10;17.00;87.80
46043;DHT22;32533;-33.854;18.542;2022-08-03T10:31:44;16.90;87.40
46043;DHT22;32533;-33.854;18.542;2022-08-03T10:34:18;16.90;87.30
46043;DHT22;32533;-33.854;18.542;2022-08-03T10:36:48;16.90;87.20
46043;DHT22;32533;-33.854;18.542;2022-08-03T10:39:20;16.90;87.50
46043;DHT22;32533;-33.854;18.542;2022-08-03T10:41:48;16.90;87.30
46043;DHT22;32533;-33.854;18.542;2022-08-03T10:44:21;16.90;87.00
46043;DHT22;32533;-33.854;18.542;2022-08-03T10:46:48;17.00;86.50
46043;DHT22;32533;-33.854;18.542;2022-08-03T10:49:19;16.90;86.10
46043;DHT22;32533;-33.854;18.542;2022-08-03T10:51:47;16.90;85.90
46043;DHT22;32533;-33.854;18.542;2022-08-03T10:54:42;17.00;85.80
46043;DHT22;32533;-33.854;18.542;2022-08-03T11:00:19;17.00;85.00
46043;DHT22;32533;-33.854;18.542;2022-08-03T11:03:11;17.00;84.80
46043;DHT22;32533;-33.854;18.542;2022-08-03T11:05:48;17.10;84.60
46043;DHT22;32533;-33.854;18.542;2022-08-03T11:08:30;17.10;84.80
46043;DHT22;32533;-33.854;18.542;2022-08-03T11:11:23;17.10;85.20
46043;DHT22;32533;-33.854;18.542;2022-08-03T11:16:33;17.20;86.10
46043;DHT22;32533;-33.854;18.542;2022-08-03T11:19:03;17.10;85.30
46043;DHT22;32533;-33.854;18.542;2022-08-03T11:27:31;17.10;85.60
46043;DHT22;32533;-33.854;18.542;2022-08-03T11:35:15;17.00;85.30
46043;DHT22;32533;-33.854;18.542;2022-08-03T11:40:49;17.00;85.70
46043;DHT22;32533;-33.854;18.542;2022-08-03T11:46:05;17.00;86.50
46043;DHT22;32533;-33.854;18.542;2022-08-03T11:48:36;17.00;86.60
46043;DHT22;32533;-33.854;18.542;2022-08-03T11:51:06;17.00;86.70
46043;DHT22;32533;-33.854;18.542;2022-08-03T11:53:33;17.00;86.70
46043;DHT22;32533;-33.854;18.542;2022-08-03T11:56:01;17.10;86.60
46043;DHT22;32533;-33.854;18.542;2022-08-03T11:58:28;17.10;86.20
46043;DHT22;32533;-33.854;18.542;2022-08-03T12:01:05;17.10;86.10
46043;DHT22;32533;-33.854;18.542;2022-08-03T12:03:33;17.10;85.50
46043;DHT22;32533;-33.854;18.542;2022-08-03T12:06:01;17.10;85.00
46043;DHT22;32533;-33.854;18.542;2022-08-03T12:08:31;17.10;84.70
46043;DHT22;32533;-33.854;18.542;2022-08-03T12:11:00;17.20;84.60
46043;DHT22;32533;-33.854;18.542;2022-08-03T12:13:37;17.20;84.40
46043;DHT22;32533;-33.854;18.542;2022-08-03T12:16:04;17.20;84.30
46043;DHT22;32533;-33.854;18.542;2022-08-03T12:18:30;17.30;84.10
46043;DHT22;32533;-33.854;18.542;2022-08-03T12:21:09;17.30;84.00
46043;DHT22;32533;-33.854;18.542;2022-08-03T12:23:36;17.30;83.70
46043;DHT22;32533;-33.854;18.542;2022-08-03T12:26:06;17.40;83.40
46043;DHT22;32533;-33.854;18.542;2022-08-03T12:28:33;17.50;83.00
46043;DHT22;32533;-33.854;18.542;2022-08-03T12:31:03;17.50;82.50
46043;DHT22;32533;-33.854;18.542;2022-08-03T12:33:32;17.60;82.30
46043;DHT22;32533;-33.854;18.542;2022-08-03T12:36:18;17.60;81.90
46043;DHT22;32533;-33.854;18.542;2022-08-03T12:38:54;17.60;81.80
46043;DHT22;32533;-33.854;18.542;2022-08-03T12:41:28;17.50;81.50
46043;DHT22;32533;-33.854;18.542;2022-08-03T12:43:55;17.50;81.40
46043;DHT22;32533;-33.854;18.542;2022-08-03T12:46:21;17.50;81.20
46043;DHT22;32533;-33.854;18.542;2022-08-03T12:48:58;17.40;81.20
46043;DHT22;32533;-33.854;18.542;2022-08-03T12:51:26;17.50;81.30
46043;DHT22;32533;-33.854;18.542;2022-08-03T12:53:54;17.50;81.30
46043;DHT22;32533;-33.854;18.542;2022-08-03T12:56:21;17.40;80.80
46043;DHT22;32533;-33.854;18.542;2022-08-03T12:58:48;17.40;80.60
46043;DHT22;32533;-33.854;18.542;2022-08-03T13:01:18;17.40;80.50
46043;DHT22;32533;-33.854;18.542;2022-08-03T13:03:49;17.50;80.70
46043;DHT22;32533;-33.854;18.542;2022-08-03T13:06:18;17.50;80.70
46043;DHT22;32533;-33.854;18.542;2022-08-03T13:08:47;17.50;80.70
46043;DHT22;32533;-33.854;18.542;2022-08-03T13:11:21;17.50;80.80
46043;DHT22;32533;-33.854;18.542;2022-08-03T13:13:48;17.50;80.90
46043;DHT22;32533;-33.854;18.542;2022-08-03T13:16:15;17.50;81.20
46043;DHT22;32533;-33.854;18.542;2022-08-03T13:18:42;17.50;81.50
46043;DHT22;32533;-33.854;18.542;2022-08-03T13:21:12;17.50;81.80
46043;DHT22;32533;-33.854;18.542;2022-08-03T13:23:39;17.60;81.80
46043;DHT22;32533;-33.854;18.542;2022-08-03T13:26:05;17.60;81.60
46043;DHT22;32533;-33.854;18.542;2022-08-03T13:28:32;17.60;81.20
46043;DHT22;32533;-33.854;18.542;2022-08-03T13:30:58;17.60;80.50
46043;DHT22;32533;-33.854;18.542;2022-08-03T13:33:28;17.70;79.90
46043;DHT22;32533;-33.854;18.542;2022-08-03T13:35:55;17.70;79.50
46043;DHT22;32533;-33.854;18.542;2022-08-03T13:38:22;17.70;78.90
46043;DHT22;32533;-33.854;18.542;2022-08-03T13:40:49;17.70;78.70
46043;DHT22;32533;-33.854;18.542;2022-08-03T13:43:16;17.70;78.80
46043;DHT22;32533;-33.854;18.542;2022-08-03T13:45:42;17.70;78.70
46043;DHT22;32533;-33.854;18.542;2022-08-03T13:48:09;17.60;78.30
46043;DHT22;32533;-33.854;18.542;2022-08-03T13:50:35;17.60;78.30
46043;DHT22;32533;-33.854;18.542;2022-08-03T13:53:02;17.60;78.20
46043;DHT22;32533;-33.854;18.542;2022-08-03T13:55:28;17.60;78.40
46043;DHT22;32533;-33.854;18.542;2022-08-03T13:57:55;17.60;78.70
46043;DHT22;32533;-33.854;18.542;2022-08-03T14:00:21;17.50;78.90
46043;DHT22;32533;-33.854;18.542;2022-08-03T14:02:51;17.50;78.80
46043;DHT22;32533;-33.854;18.542;2022-08-03T14:05:18;17.50;78.20
46043;DHT22;32533;-33.854;18.542;2022-08-03T14:07:44;17.40;77.50
46043;DHT22;32533;-33.854;18.542;2022-08-03T14:10:11;17.40;76.70
46043;DHT22;32533;-33.854;18.542;2022-08-03T14:12:38;17.40;76.30
46043;DHT22;32533;-33.854;18.542;2022-08-03T14:15:05;17.30;76.20
46043;DHT22;32533;-33.854;18.542;2022-08-03T14:17:35;17.30;76.10
46043;DHT22;32533;-33.854;18.542;2022-08-03T14:20:01;17.30;75.80
46043;DHT22;32533;-33.854;18.542;2022-08-03T14:22:29;17.30;75.20
46043;DHT22;32533;-33.854;18.542;2022-08-03T14:24:56;17.30;74.70
46043;DHT22;32533;-33.854;18.542;2022-08-03T14:27:23;17.30;74.30
46043;DHT22;32533;-33.854;18.542;2022-08-03T14:29:49;17.20;74.20
46043;DHT22;32533;-33.854;18.542;2022-08-03T14:32:15;17.20;74.40
46043;DHT22;32533;-33.854;18.542;2022-08-03T14:34:42;17.20;75.40
46043;DHT22;32533;-33.854;18.542;2022-08-03T14:37:08;17.30;76.00
46043;DHT22;32533;-33.854;18.542;2022-08-03T14:39:35;17.20;77.00
46043;DHT22;32533;-33.854;18.542;2022-08-03T14:42:01;17.20;77.80
46043;DHT22;32533;-33.854;18.542;2022-08-03T14:44:28;17.20;78.40
46043;DHT22;32533;-33.854;18.542;2022-08-03T14:46:54;17.20;78.70
46043;DHT22;32533;-33.854;18.542;2022-08-03T14:49:21;17.20;78.90
46043;DHT22;32533;-33.854;18.542;2022-08-03T14:51:47;17.20;79.30
46043;DHT22;32533;-33.854;18.542;2022-08-03T14:54:13;17.20;78.50
46043;DHT22;32533;-33.854;18.542;2022-08-03T14:56:40;17.20;78.40
46043;DHT22;32533;-33.854;18.542;2022-08-03T14:59:06;17.10;78.40
46043;DHT22;32533;-33.854;18.542;2022-08-03T15:01:33;17.10;78.40
46043;DHT22;32533;-33.854;18.542;2022-08-03T15:03:59;17.10;78.30
46043;DHT22;32533;-33.854;18.542;2022-08-03T15:06:26;17.10;78.40
46043;DHT22;32533;-33.854;18.542;2022-08-03T15:08:52;17.10;78.60
46043;DHT22;32533;-33.854;18.542;2022-08-03T15:11:19;17.10;78.30
46043;DHT22;32533;-33.854;18.542;2022-08-03T15:13:45;17.10;77.90
46043;DHT22;32533;-33.854;18.542;2022-08-03T15:16:12;17.10;77.70
46043;DHT22;32533;-33.854;18.542;2022-08-03T15:18:38;17.10;77.70
46043;DHT22;32533;-33.854;18.542;2022-08-03T15:21:05;17.10;77.60
46043;DHT22;32533;-33.854;18.542;2022-08-03T15:23:32;17.10;77.10
46043;DHT22;32533;-33.854;18.542;2022-08-03T15:25:58;17.10;76.70
46043;DHT22;32533;-33.854;18.542;2022-08-03T15:28:25;17.10;76.30
46043;DHT22;32533;-33.854;18.542;2022-08-03T15:30:52;17.10;76.30
46043;DHT22;32533;-33.854;18.542;2022-08-03T15:33:18;17.10;76.40
46043;DHT22;32533;-33.854;18.542;2022-08-03T15:35:45;17.10;76.30
46043;DHT22;32533;-33.854;18.542;2022-08-03T15:38:12;17.10;76.40
46043;DHT22;32533;-33.854;18.542;2022-08-03T15:40:38;17.10;76.30
46043;DHT22;32533;-33.854;18.542;2022-08-03T15:43:05;17.10;76.30
46043;DHT22;32533;-33.854;18.542;2022-08-03T15:45:32;17.00;75.90
46043;DHT22;32533;-33.854;18.542;2022-08-03T15:47:58;17.00;75.80
46043;DHT22;32533;-33.854;18.542;2022-08-03T15:50:24;17.00;76.00
46043;DHT22;32533;-33.854;18.542;2022-08-03T15:52:51;17.00;76.10
46043;DHT22;32533;-33.854;18.542;2022-08-03T15:55:18;17.00;76.10
46043;DHT22;32533;-33.854;18.542;2022-08-03T15:57:44;17.00;76.20